sensor_id;sensor_type;location;lat;lon;timestamp;pressure;altitude;pressure_sealevel;temperature;humidity
85895;BME280;76441;49.954;8.842;2024-03-02T00:00:00;99114.31;;;2.29;91.31
85895;BME280;76441;49.954;8.842;2024-03-02T00:02:28;99116.25;;;2.29;91.17
85895;BME280;76441;49.954;8.842;2024-03-02T00:04:53;99114.06;;;2.31;90.25
85895;BME280;76441;49.954;8.842;2024-03-02T00:07:18;99116.47;;;2.22;91.46
85895;BME280;76441;49.954;8.842;2024-03-02T00:09:44;99112.53;;;2.18;90.86
85895;BME280;76441;49.954;8.842;2024-03-02T00:12:11;99117.25;;;2.17;91.75
85895;BME280;76441;49.954;8.842;2024-03-02T00:14:40;99117.03;;;2.24;90.75
85895;BME280;76441;49.954;8.842;2024-03-02T00:17:13;99121.94;;;2.17;91.07
85895;BME280;76441;49.954;8.842;2024-03-02T00:19:42;99131.41;;;2.21;91.31
85895;BME280;76441;49.954;8.842;2024-03-02T00:22:07;99122.13;;;2.10;90.78
85895;BME280;76441;49.954;8.842;2024-03-02T00:24:34;99113.00;;;2.10;91.02
85895;BME280;76441;49.954;8.842;2024-03-02T00:27:04;99117.88;;;2.03;91.79
85895;BME280;76441;49.954;8.842;2024-03-02T00:29:30;99111.31;;;2.09;91.06
85895;BME280;76441;49.954;8.842;2024-03-02T00:31:55;99113.75;;;2.05;90.83
85895;BME280;76441;49.954;8.842;2024-03-02T00:34:21;99112.91;;;2.05;91.58
85895;BME280;76441;49.954;8.842;2024-03-02T00:36:47;99108.78;;;2.07;91.88
85895;BME280;76441;49.954;8.842;2024-03-02T00:39:15;99113.25;;;2.08;91.64
85895;BME280;76441;49.954;8.842;2024-03-02T00:41:42;99105.53;;;2.10;91.56
85895;BME280;76441;49.954;8.842;2024-03-02T00:44:09;99109.03;;;2.06;90.29
85895;BME280;76441;49.954;8.842;2024-03-02T00:46:38;99102.09;;;2.03;90.99
85895;BME280;76441;49.954;8.842;2024-03-02T00:49:05;99098.75;;;2.01;91.41
85895;BME280;76441;49.954;8.842;2024-03-02T00:51:36;99108.88;;;1.91;91.39
85895;BME280;76441;49.954;8.842;2024-03-02T00:54:04;99102.75;;;1.88;91.09
85895;BME280;76441;49.954;8.842;2024-03-02T00:56:30;99104.94;;;1.86;91.76
85895;BME280;76441;49.954;8.842;2024-03-02T00:58:56;99105.13;;;1.80;92.68
85895;BME280;76441;49.954;8.842;2024-03-02T01:01:21;99107.50;;;1.71;93.52
85895;BME280;76441;49.954;8.842;2024-03-02T01:03:47;99102.53;;;1.73;92.86
85895;BME280;76441;49.954;8.842;2024-03-02T01:06:14;99108.69;;;1.75;92.83
85895;BME280;76441;49.954;8.842;2024-03-02T01:08:40;99109.41;;;1.71;91.77
85895;BME280;76441;49.954;8.842;2024-03-02T01:11:05;99109.53;;;1.59;93.48
85895;BME280;76441;49.954;8.842;2024-03-02T01:13:31;99111.88;;;1.67;92.40
85895;BME280;76441;49.954;8.842;2024-03-02T01:15:57;99108.53;;;1.65;91.88
85895;BME280;76441;49.954;8.842;2024-03-02T01:18:22;99104.34;;;1.63;92.11
85895;BME280;76441;49.954;8.842;2024-03-02T01:20:48;99111.22;;;1.60;92.22
85895;BME280;76441;49.954;8.842;2024-03-02T01:23:19;99105.63;;;1.55;91.89
85895;BME280;76441;49.954;8.842;2024-03-02T01:25:45;99101.19;;;1.54;91.91
85895;BME280;76441;49.954;8.842;2024-03-02T01:28:11;99106.38;;;1.50;92.48
85895;BME280;76441;49.954;8.842;2024-03-02T01:30:37;99113.44;;;1.41;92.36
85895;BME280;76441;49.954;8.842;2024-03-02T01:33:02;99110.31;;;1.38;92.56
85895;BME280;76441;49.954;8.842;2024-03-02T01:35:30;99103.56;;;1.29;94.10
85895;BME280;76441;49.954;8.842;2024-03-02T01:37:55;99114.63;;;1.29;93.44
85895;BME280;76441;49.954;8.842;2024-03-02T01:40:21;99120.22;;;1.34;92.63
85895;BME280;76441;49.954;8.842;2024-03-02T01:42:46;99108.91;;;1.35;91.64
85895;BME280;76441;49.954;8.842;2024-03-02T01:45:11;99111.78;;;1.23;92.26
85895;BME280;76441;49.954;8.842;2024-03-02T01:47:37;99116.81;;;1.27;92.22
85895;BME280;76441;49.954;8.842;2024-03-02T01:50:02;99113.44;;;1.24;93.07
85895;BME280;76441;49.954;8.842;2024-03-02T01:52:27;99109.19;;;1.17;92.74
85895;BME280;76441;49.954;8.842;2024-03-02T01:54:53;99096.28;;;1.22;92.08
85895;BME280;76441;49.954;8.842;2024-03-02T01:57:19;99103.84;;;1.10;92.87
85895;BME280;76441;49.954;8.842;2024-03-02T01:59:44;99101.41;;;1.14;92.31
85895;BME280;76441;49.954;8.842;2024-03-02T02:02:10;99092.09;;;1.03;93.41
85895;BME280;76441;49.954;8.842;2024-03-02T02:04:35;99084.41;;;1.05;92.90
85895;BME280;76441;49.954;8.842;2024-03-02T02:07:01;99083.66;;;1.10;92.79
85895;BME280;76441;49.954;8.842;2024-03-02T02:09:26;99086.34;;;1.05;92.47
85895;BME280;76441;49.954;8.842;2024-03-02T02:11:52;99077.94;;;1.00;92.44
85895;BME280;76441;49.954;8.842;2024-03-02T02:14:17;99073.84;;;1.02;91.83
85895;BME280;76441;49.954;8.842;2024-03-02T02:16:43;99074.09;;;1.01;93.70
85895;BME280;76441;49.954;8.842;2024-03-02T02:19:08;99074.03;;;0.96;93.03
85895;BME280;76441;49.954;8.842;2024-03-02T02:21:34;99059.88;;;0.92;92.91
85895;BME280;76441;49.954;8.842;2024-03-02T02:23:59;99060.63;;;0.87;92.86
85895;BME280;76441;49.954;8.842;2024-03-02T02:26:26;99045.41;;;0.85;92.74
85895;BME280;76441;49.954;8.842;2024-03-02T02:28:51;99050.34;;;0.83;93.10
85895;BME280;76441;49.954;8.842;2024-03-02T02:31:17;99050.59;;;0.81;92.67
85895;BME280;76441;49.954;8.842;2024-03-02T02:33:42;99052.94;;;0.73;93.06
85895;BME280;76441;49.954;8.842;2024-03-02T02:36:08;99050.53;;;0.76;92.77
85895;BME280;76441;49.954;8.842;2024-03-02T02:38:38;99051.34;;;0.77;91.53
85895;BME280;76441;49.954;8.842;2024-03-02T02:41:04;99049.25;;;0.67;92.28
85895;BME280;76441;49.954;8.842;2024-03-02T02:43:29;99058.88;;;0.65;92.69
85895;BME280;76441;49.954;8.842;2024-03-02T02:45:54;99054.69;;;0.62;93.47
85895;BME280;76441;49.954;8.842;2024-03-02T02:48:20;99049.75;;;0.64;92.29
85895;BME280;76441;49.954;8.842;2024-03-02T02:50:45;99054.19;;;0.65;91.62
85895;BME280;76441;49.954;8.842;2024-03-02T02:53:10;99043.97;;;0.66;91.82
85895;BME280;76441;49.954;8.842;2024-03-02T02:55:35;99048.66;;;0.65;92.25
85895;BME280;76441;49.954;8.842;2024-03-02T02:58:06;99055.50;;;0.62;92.80
85895;BME280;76441;49.954;8.842;2024-03-02T03:00:31;99051.00;;;0.56;91.58
85895;BME280;76441;49.954;8.842;2024-03-02T03:02:56;99054.00;;;0.55;92.31
85895;BME280;76441;49.954;8.842;2024-03-02T03:05:22;99049.56;;;0.54;92.19
85895;BME280;76441;49.954;8.842;2024-03-02T03:07:47;99048.75;;;0.53;92.31
85895;BME280;76441;49.954;8.842;2024-03-02T03:10:15;99044.38;;;0.57;92.30
85895;BME280;76441;49.954;8.842;2024-03-02T03:12:40;99037.88;;;0.47;92.41
85895;BME280;76441;49.954;8.842;2024-03-02T03:15:08;99047.41;;;0.56;92.44
85895;BME280;76441;49.954;8.842;2024-03-02T03:17:34;99043.13;;;0.48;92.55
85895;BME280;76441;49.954;8.842;2024-03-02T03:20:00;99045.31;;;0.46;92.73
85895;BME280;76441;49.954;8.842;2024-03-02T03:22:26;99031.91;;;0.38;92.79
85895;BME280;76441;49.954;8.842;2024-03-02T03:24:51;99035.28;;;0.40;92.93
85895;BME280;76441;49.954;8.842;2024-03-02T03:27:17;99030.84;;;0.39;91.84
85895;BME280;76441;49.954;8.842;2024-03-02T03:29:42;99029.03;;;0.33;92.41
85895;BME280;76441;49.954;8.842;2024-03-02T03:32:07;99032.06;;;0.31;93.11
85895;BME280;76441;49.954;8.842;2024-03-02T03:34:33;99030.38;;;0.30;92.22
85895;BME280;76441;49.954;8.842;2024-03-02T03:37:02;99028.38;;;0.26;92.66
85895;BME280;76441;49.954;8.842;2024-03-02T03:39:28;99026.44;;;0.26;93.11
85895;BME280;76441;49.954;8.842;2024-03-02T03:41:53;99028.88;;;0.23;93.46
85895;BME280;76441;49.954;8.842;2024-03-02T03:44:19;99030.53;;;0.24;93.39
85895;BME280;76441;49.954;8.842;2024-03-02T03:46:44;99035.13;;;0.18;93.05
85895;BME280;76441;49.954;8.842;2024-03-02T03:49:09;99038.56;;;0.25;92.13
85895;BME280;76441;49.954;8.842;2024-03-02T03:51:35;99032.97;;;0.20;92.94
85895;BME280;76441;49.954;8.842;2024-03-02T03:54:02;99040.31;;;0.15;92.99
85895;BME280;76441;49.954;8.842;2024-03-02T03:56:27;99039.47;;;0.14;92.94
85895;BME280;76441;49.954;8.842;2024-03-02T03:58:53;99039.16;;;0.11;92.14
85895;BME280;76441;49.954;8.842;2024-03-02T04:01:18;99041.06;;;0.10;92.53
85895;BME280;76441;49.954;8.842;2024-03-02T04:03:43;99040.22;;;0.10;93.33
85895;BME280;76441;49.954;8.842;2024-03-02T04:06:09;99035.31;;;0.12;92.30
85895;BME280;76441;49.954;8.842;2024-03-02T04:08:34;99041.91;;;0.11;93.18
85895;BME280;76441;49.954;8.842;2024-03-02T04:10:59;99036.28;;;0.06;92.88
85895;BME280;76441;49.954;8.842;2024-03-02T04:13:25;99037.88;;;0.02;93.37
85895;BME280;76441;49.954;8.842;2024-03-02T04:15:50;99038.22;;;0.05;92.66
85895;BME280;76441;49.954;8.842;2024-03-02T04:18:16;99046.63;;;-0.02;92.95
85895;BME280;76441;49.954;8.842;2024-03-02T04:20:42;99044.09;;;-0.03;92.71
85895;BME280;76441;49.954;8.842;2024-03-02T04:23:07;99031.97;;;-0.02;92.82
85895;BME280;76441;49.954;8.842;2024-03-02T04:25:33;99045.78;;;-0.02;92.80
85895;BME280;76441;49.954;8.842;2024-03-02T04:27:58;99044.34;;;-0.05;93.19
85895;BME280;76441;49.954;8.842;2024-03-02T04:30:23;99037.91;;;-0.10;93.37
85895;BME280;76441;49.954;8.842;2024-03-02T04:32:50;99046.28;;;-0.05;92.88
85895;BME280;76441;49.954;8.842;2024-03-02T04:35:15;99037.16;;;-0.06;92.61
85895;BME280;76441;49.954;8.842;2024-03-02T04:37:40;99045.00;;;-0.14;93.35
85895;BME280;76441;49.954;8.842;2024-03-02T04:40:06;99046.31;;;-0.17;93.79
85895;BME280;76441;49.954;8.842;2024-03-02T04:42:35;99049.69;;;-0.15;93.68
85895;BME280;76441;49.954;8.842;2024-03-02T04:45:01;99053.50;;;-0.16;93.72
85895;BME280;76441;49.954;8.842;2024-03-02T04:47:26;99053.16;;;-0.19;93.66
85895;BME280;76441;49.954;8.842;2024-03-02T04:49:51;99055.69;;;-0.18;93.69
85895;BME280;76441;49.954;8.842;2024-03-02T04:52:17;99044.31;;;-0.21;93.45
85895;BME280;76441;49.954;8.842;2024-03-02T04:54:42;99049.56;;;-0.20;92.40
85895;BME280;76441;49.954;8.842;2024-03-02T04:57:26;99050.66;;;-0.21;93.09
85895;BME280;76441;49.954;8.842;2024-03-02T04:59:52;99040.47;;;-0.20;93.92
85895;BME280;76441;49.954;8.842;2024-03-02T05:02:17;99045.84;;;-0.14;92.27
85895;BME280;76441;49.954;8.842;2024-03-02T05:04:42;99045.59;;;-0.12;93.33
85895;BME280;76441;49.954;8.842;2024-03-02T05:07:08;99049.00;;;-0.22;91.78
85895;BME280;76441;49.954;8.842;2024-03-02T05:09:33;99055.50;;;-0.28;93.96
85895;BME280;76441;49.954;8.842;2024-03-02T05:11:58;99053.31;;;-0.26;93.04
85895;BME280;76441;49.954;8.842;2024-03-02T05:14:42;99055.59;;;-0.23;93.79
85895;BME280;76441;49.954;8.842;2024-03-02T05:17:07;99057.66;;;-0.30;93.75
85895;BME280;76441;49.954;8.842;2024-03-02T05:19:32;99055.97;;;-0.31;92.58
85895;BME280;76441;49.954;8.842;2024-03-02T05:21:58;99049.13;;;-0.28;93.31
85895;BME280;76441;49.954;8.842;2024-03-02T05:24:23;99052.72;;;-0.28;93.23
85895;BME280;76441;49.954;8.842;2024-03-02T05:26:48;99061.34;;;-0.24;93.22
85895;BME280;76441;49.954;8.842;2024-03-02T05:29:14;99054.50;;;-0.22;93.19
85895;BME280;76441;49.954;8.842;2024-03-02T05:31:39;99061.09;;;-0.23;93.83
85895;BME280;76441;49.954;8.842;2024-03-02T05:34:05;99066.88;;;-0.24;92.34
85895;BME280;76441;49.954;8.842;2024-03-02T05:36:31;99072.97;;;-0.22;93.66
85895;BME280;76441;49.954;8.842;2024-03-02T05:38:56;99070.47;;;-0.24;93.64
85895;BME280;76441;49.954;8.842;2024-03-02T05:41:22;99073.91;;;-0.17;94.68
85895;BME280;76441;49.954;8.842;2024-03-02T05:43:47;99078.94;;;-0.14;92.36
85895;BME280;76441;49.954;8.842;2024-03-02T05:46:12;99081.09;;;-0.16;93.03
85895;BME280;76441;49.954;8.842;2024-03-02T05:48:38;99071.16;;;-0.17;93.58
85895;BME280;76441;49.954;8.842;2024-03-02T05:51:03;99078.19;;;-0.09;93.21
85895;BME280;76441;49.954;8.842;2024-03-02T05:53:28;99079.28;;;-0.10;92.98
85895;BME280;76441;49.954;8.842;2024-03-02T05:55:54;99093.06;;;-0.10;93.43
85895;BME280;76441;49.954;8.842;2024-03-02T05:58:21;99085.03;;;-0.12;94.57
85895;BME280;76441;49.954;8.842;2024-03-02T06:01:03;99091.25;;;-0.05;92.75
85895;BME280;76441;49.954;8.842;2024-03-02T06:03:29;99084.88;;;-0.05;93.10
85895;BME280;76441;49.954;8.842;2024-03-02T06:05:55;99083.47;;;-0.08;93.30
85895;BME280;76441;49.954;8.842;2024-03-02T06:08:20;99089.56;;;-0.06;93.69
85895;BME280;76441;49.954;8.842;2024-03-02T06:10:45;99095.56;;;0.03;93.24
85895;BME280;76441;49.954;8.842;2024-03-02T06:13:11;99090.66;;;-0.07;92.32
85895;BME280;76441;49.954;8.842;2024-03-02T06:15:36;99095.00;;;-0.11;93.84
85895;BME280;76441;49.954;8.842;2024-03-02T06:18:02;99095.56;;;-0.09;93.49
85895;BME280;76441;49.954;8.842;2024-03-02T06:20:27;99097.50;;;-0.09;94.11
85895;BME280;76441;49.954;8.842;2024-03-02T06:22:52;99100.00;;;-0.08;94.64
85895;BME280;76441;49.954;8.842;2024-03-02T06:25:17;99104.78;;;-0.03;93.42
85895;BME280;76441;49.954;8.842;2024-03-02T06:27:43;99106.94;;;0.07;93.76
85895;BME280;76441;49.954;8.842;2024-03-02T06:30:08;99098.91;;;0.05;93.50
85895;BME280;76441;49.954;8.842;2024-03-02T06:32:34;99102.59;;;0.11;93.74
85895;BME280;76441;49.954;8.842;2024-03-02T06:34:59;99111.31;;;0.19;93.16
85895;BME280;76441;49.954;8.842;2024-03-02T06:37:25;99117.00;;;0.13;92.19
85895;BME280;76441;49.954;8.842;2024-03-02T06:39:50;99117.09;;;0.18;92.42
85895;BME280;76441;49.954;8.842;2024-03-02T06:42:15;99122.84;;;0.16;93.82
85895;BME280;76441;49.954;8.842;2024-03-02T06:44:40;99122.84;;;0.16;92.41
85895;BME280;76441;49.954;8.842;2024-03-02T06:47:06;99115.66;;;0.15;93.01
85895;BME280;76441;49.954;8.842;2024-03-02T06:49:31;99121.03;;;0.22;92.82
85895;BME280;76441;49.954;8.842;2024-03-02T06:51:56;99122.88;;;0.33;93.51
85895;BME280;76441;49.954;8.842;2024-03-02T06:54:21;99127.31;;;0.34;93.65
85895;BME280;76441;49.954;8.842;2024-03-02T06:56:47;99137.91;;;0.37;92.93
85895;BME280;76441;49.954;8.842;2024-03-02T06:59:12;99133.94;;;0.33;92.41
85895;BME280;76441;49.954;8.842;2024-03-02T07:01:37;99131.97;;;0.45;91.85
85895;BME280;76441;49.954;8.842;2024-03-02T07:04:03;99125.88;;;0.43;93.08
85895;BME280;76441;49.954;8.842;2024-03-02T07:06:28;99119.59;;;0.48;92.94
85895;BME280;76441;49.954;8.842;2024-03-02T07:08:53;99129.81;;;0.47;92.46
85895;BME280;76441;49.954;8.842;2024-03-02T07:11:18;99138.69;;;0.49;92.56
85895;BME280;76441;49.954;8.842;2024-03-02T07:13:44;99139.75;;;0.48;92.55
85895;BME280;76441;49.954;8.842;2024-03-02T07:16:09;99143.69;;;0.52;92.10
85895;BME280;76441;49.954;8.842;2024-03-02T07:18:55;99141.13;;;0.62;91.71
85895;BME280;76441;49.954;8.842;2024-03-02T07:21:22;99135.69;;;0.68;92.37
85895;BME280;76441;49.954;8.842;2024-03-02T07:23:48;99138.19;;;0.69;91.64
85895;BME280;76441;49.954;8.842;2024-03-02T07:26:14;99151.28;;;0.74;92.29
85895;BME280;76441;49.954;8.842;2024-03-02T07:28:43;99151.03;;;0.75;92.50
85895;BME280;76441;49.954;8.842;2024-03-02T07:31:09;99154.16;;;0.79;92.20
85895;BME280;76441;49.954;8.842;2024-03-02T07:33:35;99152.56;;;0.83;91.93
85895;BME280;76441;49.954;8.842;2024-03-02T07:36:00;99144.25;;;0.83;92.46
85895;BME280;76441;49.954;8.842;2024-03-02T07:38:27;99148.72;;;0.84;92.58
85895;BME280;76441;49.954;8.842;2024-03-02T07:40:52;99148.78;;;0.89;92.85
85895;BME280;76441;49.954;8.842;2024-03-02T07:43:19;99144.94;;;0.90;91.49
85895;BME280;76441;49.954;8.842;2024-03-02T07:45:47;99142.19;;;0.90;92.07
85895;BME280;76441;49.954;8.842;2024-03-02T07:48:13;99139.41;;;0.90;94.36
85895;BME280;76441;49.954;8.842;2024-03-02T07:50:38;99145.59;;;0.97;93.41
85895;BME280;76441;49.954;8.842;2024-03-02T07:53:05;99150.03;;;0.98;92.98
85895;BME280;76441;49.954;8.842;2024-03-02T07:55:30;99148.44;;;1.02;93.91
85895;BME280;76441;49.954;8.842;2024-03-02T07:57:56;99149.16;;;1.09;91.62
85895;BME280;76441;49.954;8.842;2024-03-02T08:00:22;99152.16;;;1.24;93.32
85895;BME280;76441;49.954;8.842;2024-03-02T08:02:48;99150.97;;;1.37;91.13
85895;BME280;76441;49.954;8.842;2024-03-02T08:05:15;99151.66;;;1.44;91.29
85895;BME280;76441;49.954;8.842;2024-03-02T08:07:41;99161.94;;;1.49;91.58
85895;BME280;76441;49.954;8.842;2024-03-02T08:10:07;99154.81;;;1.53;91.82
85895;BME280;76441;49.954;8.842;2024-03-02T08:12:32;99154.44;;;1.66;92.53
85895;BME280;76441;49.954;8.842;2024-03-02T08:14:57;99151.44;;;1.68;93.43
85895;BME280;76441;49.954;8.842;2024-03-02T08:17:23;99148.13;;;1.87;92.88
85895;BME280;76441;49.954;8.842;2024-03-02T08:19:48;99140.34;;;2.28;91.51
85895;BME280;76441;49.954;8.842;2024-03-02T08:22:14;99149.16;;;2.47;91.66
85895;BME280;76441;49.954;8.842;2024-03-02T08:24:40;99145.81;;;2.99;89.87
85895;BME280;76441;49.954;8.842;2024-03-02T08:27:05;99148.63;;;3.78;87.64
85895;BME280;76441;49.954;8.842;2024-03-02T08:29:31;99156.38;;;4.18;87.49
85895;BME280;76441;49.954;8.842;2024-03-02T08:31:56;99155.84;;;4.26;87.94
85895;BME280;76441;49.954;8.842;2024-03-02T08:34:21;99148.81;;;4.08;88.35
85895;BME280;76441;49.954;8.842;2024-03-02T08:36:47;99151.00;;;4.74;88.12
85895;BME280;76441;49.954;8.842;2024-03-02T08:39:12;99155.50;;;5.00;85.97
85895;BME280;76441;49.954;8.842;2024-03-02T08:41:42;99158.31;;;5.11;86.60
85895;BME280;76441;49.954;8.842;2024-03-02T08:44:08;99159.44;;;5.25;87.45
85895;BME280;76441;49.954;8.842;2024-03-02T08:46:33;99152.75;;;5.16;86.62
85895;BME280;76441;49.954;8.842;2024-03-02T08:48:59;99167.47;;;5.11;87.71
85895;BME280;76441;49.954;8.842;2024-03-02T08:51:24;99160.56;;;5.24;87.00
85895;BME280;76441;49.954;8.842;2024-03-02T08:53:50;99165.00;;;5.35;87.20
85895;BME280;76441;49.954;8.842;2024-03-02T08:56:15;99166.69;;;5.56;87.19
85895;BME280;76441;49.954;8.842;2024-03-02T08:58:41;99159.94;;;5.83;85.35
85895;BME280;76441;49.954;8.842;2024-03-02T09:01:06;99169.13;;;5.88;85.29
85895;BME280;76441;49.954;8.842;2024-03-02T09:03:33;99170.28;;;5.92;86.40
85895;BME280;76441;49.954;8.842;2024-03-02T09:05:59;99162.16;;;6.06;85.30
85895;BME280;76441;49.954;8.842;2024-03-02T09:08:24;99157.16;;;6.03;85.78
85895;BME280;76441;49.954;8.842;2024-03-02T09:10:49;99163.28;;;6.05;84.92
85895;BME280;76441;49.954;8.842;2024-03-02T09:13:14;99166.03;;;6.20;85.79
85895;BME280;76441;49.954;8.842;2024-03-02T09:15:40;99162.38;;;6.35;84.33
85895;BME280;76441;49.954;8.842;2024-03-02T09:18:05;99165.63;;;6.52;85.70
85895;BME280;76441;49.954;8.842;2024-03-02T09:20:31;99160.06;;;6.47;84.78
85895;BME280;76441;49.954;8.842;2024-03-02T09:22:57;99161.97;;;6.62;84.62
85895;BME280;76441;49.954;8.842;2024-03-02T09:25:22;99165.09;;;7.05;83.15
85895;BME280;76441;49.954;8.842;2024-03-02T09:27:47;99156.84;;;7.24;82.99
85895;BME280;76441;49.954;8.842;2024-03-02T09:30:13;99149.66;;;7.51;83.23
85895;BME280;76441;49.954;8.842;2024-03-02T09:32:39;99152.72;;;7.84;80.09
85895;BME280;76441;49.954;8.842;2024-03-02T09:35:05;99146.38;;;7.73;79.88
85895;BME280;76441;49.954;8.842;2024-03-02T09:37:30;99141.66;;;8.51;78.69
85895;BME280;76441;49.954;8.842;2024-03-02T09:39:56;99149.59;;;8.43;77.48
85895;BME280;76441;49.954;8.842;2024-03-02T09:42:21;99135.97;;;8.80;76.27
85895;BME280;76441;49.954;8.842;2024-03-02T09:44:47;99143.16;;;9.04;74.54
85895;BME280;76441;49.954;8.842;2024-03-02T09:47:13;99147.53;;;8.92;75.95
85895;BME280;76441;49.954;8.842;2024-03-02T09:49:39;99142.63;;;8.84;76.12
85895;BME280;76441;49.954;8.842;2024-03-02T09:52:05;99142.75;;;8.73;76.84
85895;BME280;76441;49.954;8.842;2024-03-02T09:54:31;99141.69;;;8.69;76.50
85895;BME280;76441;49.954;8.842;2024-03-02T09:56:57;99140.72;;;8.79;76.16
85895;BME280;76441;49.954;8.842;2024-03-02T09:59:22;99135.66;;;8.81;74.17
85895;BME280;76441;49.954;8.842;2024-03-02T10:02:03;99150.25;;;8.78;74.83
85895;BME280;76441;49.954;8.842;2024-03-02T10:04:29;99129.22;;;8.81;75.74
85895;BME280;76441;49.954;8.842;2024-03-02T10:07:15;99139.91;;;9.16;75.09
85895;BME280;76441;49.954;8.842;2024-03-02T10:09:46;99131.34;;;9.26;74.02
85895;BME280;76441;49.954;8.842;2024-03-02T10:12:12;99127.31;;;9.32;75.04
85895;BME280;76441;49.954;8.842;2024-03-02T10:14:38;99130.09;;;9.51;74.85
85895;BME280;76441;49.954;8.842;2024-03-02T10:17:06;99136.13;;;9.58;71.82
85895;BME280;76441;49.954;8.842;2024-03-02T10:19:32;99128.44;;;9.50;71.84
85895;BME280;76441;49.954;8.842;2024-03-02T10:22:04;99127.16;;;9.75;71.16
85895;BME280;76441;49.954;8.842;2024-03-02T10:24:39;99125.03;;;9.99;70.62
85895;BME280;76441;49.954;8.842;2024-03-02T10:27:19;99116.25;;;10.61;70.58
85895;BME280;76441;49.954;8.842;2024-03-02T10:29:47;99119.72;;;10.44;67.14
85895;BME280;76441;49.954;8.842;2024-03-02T10:32:13;99107.50;;;10.62;68.99
85895;BME280;76441;49.954;8.842;2024-03-02T10:34:42;99116.06;;;10.30;66.15
85895;BME280;76441;49.954;8.842;2024-03-02T10:37:08;99114.09;;;10.44;65.79
85895;BME280;76441;49.954;8.842;2024-03-02T10:39:35;99106.22;;;10.96;67.73
85895;BME280;76441;49.954;8.842;2024-03-02T10:42:05;99101.41;;;11.55;67.85
85895;BME280;76441;49.954;8.842;2024-03-02T10:44:31;99097.00;;;11.63;63.28
85895;BME280;76441;49.954;8.842;2024-03-02T10:47:00;99094.28;;;12.02;60.40
85895;BME280;76441;49.954;8.842;2024-03-02T10:49:30;99084.66;;;12.91;60.41
85895;BME280;76441;49.954;8.842;2024-03-02T10:51:57;99082.66;;;12.26;56.18
85895;BME280;76441;49.954;8.842;2024-03-02T10:54:23;99084.06;;;12.55;55.61
85895;BME280;76441;49.954;8.842;2024-03-02T10:56:52;99081.16;;;12.86;57.84
85895;BME280;76441;49.954;8.842;2024-03-02T10:59:27;99067.75;;;13.43;56.50
85895;BME280;76441;49.954;8.842;2024-03-02T11:01:58;99063.38;;;13.80;57.12
85895;BME280;76441;49.954;8.842;2024-03-02T11:04:28;99069.50;;;13.82;53.67
85895;BME280;76441;49.954;8.842;2024-03-02T11:07:20;99066.09;;;14.15;54.34
85895;BME280;76441;49.954;8.842;2024-03-02T11:10:01;99071.03;;;14.26;49.02
85895;BME280;76441;49.954;8.842;2024-03-02T11:12:38;99068.50;;;13.95;51.48
85895;BME280;76441;49.954;8.842;2024-03-02T11:15:10;99055.34;;;14.46;51.76
85895;BME280;76441;49.954;8.842;2024-03-02T11:17:38;99059.28;;;14.54;51.67
85895;BME280;76441;49.954;8.842;2024-03-02T11:20:05;99062.75;;;14.21;51.48
85895;BME280;76441;49.954;8.842;2024-03-02T11:22:36;99047.66;;;14.17;51.67
85895;BME280;76441;49.954;8.842;2024-03-02T11:25:01;99052.13;;;14.27;49.29
85895;BME280;76441;49.954;8.842;2024-03-02T11:33:02;99047.72;;;14.38;48.98
85895;BME280;76441;49.954;8.842;2024-03-02T11:35:37;99038.34;;;14.25;48.64
85895;BME280;76441;49.954;8.842;2024-03-02T11:38:03;99039.19;;;14.55;49.94
85895;BME280;76441;49.954;8.842;2024-03-02T11:40:30;99041.41;;;14.41;49.27
85895;BME280;76441;49.954;8.842;2024-03-02T11:42:56;99042.47;;;14.28;48.84
85895;BME280;76441;49.954;8.842;2024-03-02T11:45:25;99033.19;;;14.57;51.49
85895;BME280;76441;49.954;8.842;2024-03-02T11:47:53;99030.16;;;14.32;46.66
85895;BME280;76441;49.954;8.842;2024-03-02T11:53:03;99024.47;;;14.91;50.27
85895;BME280;76441;49.954;8.842;2024-03-02T11:55:36;99022.56;;;14.83;47.87
85895;BME280;76441;49.954;8.842;2024-03-02T11:58:04;99014.28;;;14.78;48.56
85895;BME280;76441;49.954;8.842;2024-03-02T12:00:29;99016.72;;;14.29;45.68
85895;BME280;76441;49.954;8.842;2024-03-02T12:03:06;99006.41;;;13.95;48.04
85895;BME280;76441;49.954;8.842;2024-03-02T12:05:32;98997.72;;;14.09;49.27
85895;BME280;76441;49.954;8.842;2024-03-02T12:08:02;98996.56;;;14.10;50.79
85895;BME280;76441;49.954;8.842;2024-03-02T12:10:28;98992.75;;;14.44;48.93
85895;BME280;76441;49.954;8.842;2024-03-02T12:13:05;98984.59;;;14.13;49.13
85895;BME280;76441;49.954;8.842;2024-03-02T12:15:33;98993.84;;;14.22;51.86
85895;BME280;76441;49.954;8.842;2024-03-02T12:18:00;98983.75;;;14.13;51.59
85895;BME280;76441;49.954;8.842;2024-03-02T12:20:27;98984.19;;;13.85;51.48
85895;BME280;76441;49.954;8.842;2024-03-02T12:22:54;98977.50;;;13.60;54.14
85895;BME280;76441;49.954;8.842;2024-03-02T12:25:21;98975.88;;;13.42;52.51
85895;BME280;76441;49.954;8.842;2024-03-02T12:27:51;98975.19;;;13.62;53.02
85895;BME280;76441;49.954;8.842;2024-03-02T12:30:17;98975.22;;;13.45;53.58
85895;BME280;76441;49.954;8.842;2024-03-02T12:32:44;98969.28;;;13.38;53.29
85895;BME280;76441;49.954;8.842;2024-03-02T12:35:10;98960.47;;;13.39;53.80
85895;BME280;76441;49.954;8.842;2024-03-02T12:37:49;98947.31;;;13.52;52.44
85895;BME280;76441;49.954;8.842;2024-03-02T12:40:17;98953.03;;;13.35;52.95
85895;BME280;76441;49.954;8.842;2024-03-02T12:42:44;98950.47;;;13.51;53.52
85895;BME280;76441;49.954;8.842;2024-03-02T12:45:10;98946.88;;;13.41;55.41
85895;BME280;76441;49.954;8.842;2024-03-02T12:47:36;98952.53;;;13.80;53.55
85895;BME280;76441;49.954;8.842;2024-03-02T12:50:03;98950.94;;;13.70;53.20
85895;BME280;76441;49.954;8.842;2024-03-02T12:52:29;98959.53;;;13.73;53.46
85895;BME280;76441;49.954;8.842;2024-03-02T12:54:55;98954.97;;;13.52;53.40
85895;BME280;76441;49.954;8.842;2024-03-02T12:57:26;98954.66;;;13.53;53.08
85895;BME280;76441;49.954;8.842;2024-03-02T12:59:54;98939.53;;;13.49;52.56
85895;BME280;76441;49.954;8.842;2024-03-02T13:02:21;98945.31;;;13.61;52.13
85895;BME280;76441;49.954;8.842;2024-03-02T13:04:53;98940.50;;;13.62;51.75
85895;BME280;76441;49.954;8.842;2024-03-02T13:07:20;98930.50;;;13.73;53.49
85895;BME280;76441;49.954;8.842;2024-03-02T13:09:45;98932.94;;;13.83;51.00
85895;BME280;76441;49.954;8.842;2024-03-02T13:12:11;98934.28;;;13.77;51.31